Terminal Aerodrome Forecast
Issued by NWS Pittsburgh, PA

Current Version | Previous Version | Graphics & Text | Print | Product List | Glossary On
Versions: 1 2 3 4 5 6 7 8 9 10 11 12 13 14 15 16 17 18 19 20 21 22 23 24 25 26 27 28 29 30 31 32 33 34 35 36
000
FTUS41 KPBZ 200500
TAFPIT
TAF
KPIT 200531Z 2006/2112 33015G25KT 3SM TSRA BKN020CB OVC040
     FM200730 31006KT 6SM BR VCSH SCT030 BKN100
     FM201200 19006KT P6SM SCT030 BKN080
     FM201800 22010KT P6SM VCTS BKN040CB
     FM210200 23004KT P6SM SCT040
     FM210600 VRB03KT 5SM BR SCT040=

USA.gov is the U.S. government's official web portal to all federal, state and local government web resources and services.